Time;durP1;ratioP1;P1;durP2;ratioP2;P2;SDS_P1;SDS_P2;PMS_P1;PMS_P2;Temp;Humidity;BMP_temperature;BMP_pressure;BME280_temperature;BME280_humidity;BME280_pressure;Samples;Min_cycle;Max_cycle;Signal;HPM_P1;HPM_P2
2022/06/15 00:03:01;;;;;;;6.20;3.03;;;;;;;19.40;43.07;98129.34;8352082;28;20243;-75
2022/06/15 00:07:04;;;;;;;3.43;2.53;;;;;;;19.36;42.71;98127.88;8351712;28;20232;-75
2022/06/15 00:11:12;;;;;;;4.93;3.00;;;;;;;19.29;43.15;98129.34;8351656;28;20234;-75
2022/06/15 00:15:16;;;;;;;6.27;2.80;;;;;;;19.22;43.09;98126.31;8351505;28;20231;-75
2022/06/15 00:19:20;;;;;;;5.87;3.03;;;;;;;19.16;43.18;98126.81;8351097;28;20240;-76
2022/06/15 00:23:22;;;;;;;6.20;2.83;;;;;;;19.19;43.29;98130.97;8384049;28;20224;-75
2022/06/15 00:27:25;;;;;;;7.93;2.70;;;;;;;19.17;43.56;98127.63;8384255;28;20238;-75
2022/06/15 00:31:29;;;;;;;7.80;3.00;;;;;;;19.08;43.24;98123.94;8384218;28;20454;-75
2022/06/15 00:35:32;;;;;;;3.50;2.70;;;;;;;19.03;43.46;98121.66;8384040;28;20262;-75
2022/06/15 00:39:35;;;;;;;7.33;2.93;;;;;;;18.90;43.62;98119.13;8383724;28;20243;-76
2022/06/15 00:43:41;;;;;;;7.97;3.00;;;;;;;18.96;43.78;98120.44;8383724;28;20562;-75
2022/06/15 00:47:46;;;;;;;8.90;3.10;;;;;;;18.89;44.15;98116.63;8383690;28;20227;-75
2022/06/15 00:51:52;;;;;;;5.07;3.10;;;;;;;18.87;44.15;98118.56;8383427;28;20227;-75
2022/06/15 00:55:55;;;;;;;5.27;2.53;;;;;;;18.92;43.75;98116.38;8383548;28;20227;-76
2022/06/15 01:00:00;;;;;;;5.50;2.57;;;;;;;18.74;44.19;98115.97;8383366;28;20431;-75
2022/06/15 01:04:05;;;;;;;6.77;2.63;;;;;;;18.65;44.32;98124.53;8383278;28;20432;-76
2022/06/15 01:08:17;;;;;;;5.87;2.63;;;;;;;18.63;44.04;98129.06;8383098;28;20278;-76
2022/06/15 01:12:31;;;;;;;7.50;2.80;;;;;;;18.53;44.29;98121.88;8382797;28;20430;-76
2022/06/15 01:16:40;;;;;;;4.30;2.50;;;;;;;18.55;44.39;98119.16;8382189;28;20434;-75
2022/06/15 01:21:07;;;;;;;4.50;2.67;;;;;;;18.58;44.51;98118.06;8382609;28;20228;-75
2022/06/15 01:25:27;;;;;;;4.23;2.73;;;;;;;18.50;44.75;98127.34;8380871;28;20231;-76
2022/06/15 01:30:14;;;;;;;7.60;3.43;;;;;;;18.35;45.13;98121.47;8356291;28;20231;-75
2022/06/15 01:34:22;;;;;;;4.57;3.00;;;;;;;18.36;45.03;98111.81;8349107;28;20236;-77
2022/06/15 01:38:31;;;;;;;6.13;3.00;;;;;;;18.29;45.29;98116.66;8373595;28;20235;-75
2022/06/15 01:42:38;;;;;;;3.57;2.67;;;;;;;18.31;45.56;98119.16;8381744;28;20236;-76
2022/06/15 01:46:44;;;;;;;4.00;2.90;;;;;;;18.33;45.29;98122.50;8381759;28;20227;-76
2022/06/15 01:50:52;;;;;;;8.97;2.87;;;;;;;18.23;45.83;98119.72;8381679;28;20230;-76
2022/06/15 01:55:01;;;;;;;5.37;3.07;;;;;;;18.27;45.15;98120.34;8381677;28;20231;-76
2022/06/15 01:59:16;;;;;;;5.83;2.90;;;;;;;18.19;45.56;98125.31;8381339;28;20239;-76
2022/06/15 02:03:23;;;;;;;4.37;2.77;;;;;;;18.18;45.73;98119.22;8381357;28;20238;-76
2022/06/15 02:07:35;;;;;;;4.97;2.93;;;;;;;18.19;44.99;98115.66;8347807;28;20645;-75
2022/06/15 02:11:40;;;;;;;4.47;2.70;;;;;;;18.14;45.74;98109.91;8347992;28;20228;-76
2022/06/15 02:15:45;;;;;;;4.73;2.90;;;;;;;17.95;46.00;98108.66;8348004;28;20232;-75
2022/06/15 02:19:49;;;;;;;4.53;3.00;;;;;;;17.95;46.01;98116.50;8347881;28;20228;-76
2022/06/15 02:23:57;;;;;;;10.20;3.10;;;;;;;18.04;45.92;98108.91;8347827;28;20228;-76
2022/06/15 02:28:02;;;;;;;4.80;3.10;;;;;;;17.94;46.00;98106.97;8347698;28;20239;-76
2022/06/15 02:32:08;;;;;;;5.00;3.23;;;;;;;17.93;45.87;98109.69;8347600;28;20228;-76
2022/06/15 02:36:11;;;;;;;7.67;3.57;;;;;;;17.83;46.25;98106.88;8347543;28;20436;-76
2022/06/15 02:40:17;;;;;;;4.33;3.40;;;;;;;17.76;46.35;98106.47;8347231;28;20243;-76
2022/06/15 02:44:20;;;;;;;5.37;3.20;;;;;;;17.70;46.42;98100.84;8347182;28;20232;-76
2022/06/15 02:48:23;;;;;;;3.97;3.20;;;;;;;17.61;46.50;98097.09;8346983;28;20224;-75
2022/06/15 02:52:34;;;;;;;6.40;2.97;;;;;;;17.63;46.73;98097.81;8347319;28;20232;-76
2022/06/15 02:56:39;;;;;;;5.97;2.93;;;;;;;17.59;46.52;98094.59;8347101;28;20232;-76
2022/06/15 03:00:42;;;;;;;6.23;3.23;;;;;;;17.50;47.02;98100.47;8347238;28;20414;-76
2022/06/15 03:04:46;;;;;;;6.07;3.13;;;;;;;17.45;46.96;98107.81;8347131;28;20292;-76
2022/06/15 03:08:49;;;;;;;5.10;3.13;;;;;;;17.40;46.94;98109.91;8347082;28;20410;-76
2022/06/15 03:12:53;;;;;;;7.47;3.63;;;;;;;17.42;46.94;98118.50;8347043;28;20228;-76
2022/06/15 03:16:56;;;;;;;7.40;3.83;;;;;;;17.35;47.50;98112.84;8346786;28;20539;-76
2022/06/15 03:21:00;;;;;;;5.60;3.90;;;;;;;17.33;47.39;98119.97;8346937;28;20238;-76
2022/06/15 03:25:03;;;;;;;7.43;3.47;;;;;;;17.36;47.31;98109.31;8346838;28;20237;-76
2022/06/15 03:29:11;;;;;;;6.47;3.80;;;;;;;17.35;47.25;98109.41;8346704;28;20235;-76
2022/06/15 03:33:14;;;;;;;5.63;3.57;;;;;;;17.35;47.34;98110.22;8346671;28;20228;-76
2022/06/15 03:37:17;;;;;;;6.73;3.50;;;;;;;17.33;47.60;98116.53;8346563;28;20228;-76
2022/06/15 03:41:21;;;;;;;6.07;4.00;;;;;;;17.31;47.75;98114.00;8346626;28;20434;-76
2022/06/15 03:45:25;;;;;;;5.97;3.70;;;;;;;17.35;47.53;98109.41;8345907;28;20228;-76
2022/06/15 03:49:29;;;;;;;4.90;3.63;;;;;;;17.41;47.12;98116.81;8346524;28;20465;-76
2022/06/15 03:53:31;;;;;;;6.27;3.70;;;;;;;17.39;47.27;98121.34;8350952;28;20232;-75
2022/06/15 03:57:34;;;;;;;5.57;3.70;;;;;;;17.34;47.25;98119.03;8352164;28;20232;-75
2022/06/15 04:01:38;;;;;;;7.13;3.93;;;;;;;17.34;47.58;98113.81;8352170;28;20247;-76
2022/06/15 04:05:43;;;;;;;8.83;3.83;;;;;;;17.33;48.12;98108.69;8352042;28;20571;-75
2022/06/15 04:09:46;;;;;;;4.30;3.60;;;;;;;17.47;47.65;98118.16;8351927;28;20235;-76
2022/06/15 04:13:49;;;;;;;4.47;3.63;;;;;;;17.43;48.01;98119.34;8351669;28;20227;-75
2022/06/15 04:17:53;;;;;;;4.77;3.30;;;;;;;17.53;47.79;98118.56;8351537;28;20240;-76
2022/06/15 04:21:58;;;;;;;7.10;3.90;;;;;;;17.54;47.92;98116.81;8351588;28;20417;-76
2022/06/15 04:26:03;;;;;;;7.43;4.13;;;;;;;17.45;47.90;98109.59;8351356;28;20232;-76
2022/06/15 04:30:06;;;;;;;5.93;4.10;;;;;;;17.61;47.16;98118.06;8351156;28;20228;-76
2022/06/15 04:34:11;;;;;;;5.87;3.97;;;;;;;17.78;46.26;98116.81;8351094;28;20232;-76
2022/06/15 04:38:14;;;;;;;6.87;3.40;;;;;;;17.69;46.34;98125.38;8350984;28;20240;-76
2022/06/15 04:42:17;;;;;;;6.77;3.53;;;;;;;17.39;47.03;98126.56;8350791;28;20243;-76
2022/06/15 04:46:21;;;;;;;7.50;3.40;;;;;;;17.65;46.71;98122.13;8350694;28;20277;-76
2022/06/15 04:50:26;;;;;;;5.20;3.23;;;;;;;17.72;46.69;98123.34;8375369;28;20238;-75
2022/06/15 04:54:28;;;;;;;8.93;3.53;;;;;;;17.53;47.18;98122.97;8383564;28;20238;-75
2022/06/15 04:58:31;;;;;;;4.87;3.30;;;;;;;17.76;46.84;98127.44;8383237;28;20243;-75
2022/06/15 05:02:34;;;;;;;5.23;3.30;;;;;;;17.88;46.36;98130.16;8383279;28;20231;-76
2022/06/15 05:06:40;;;;;;;7.03;3.60;;;;;;;17.37;47.53;98139.75;8383259;28;20250;-76
2022/06/15 05:10:44;;;;;;;7.57;3.50;;;;;;;17.66;46.99;98143.91;8383112;28;20219;-77
2022/06/15 05:14:47;;;;;;;5.90;3.10;;;;;;;17.70;47.44;98140.13;8383178;28;20544;-76
2022/06/15 05:18:50;;;;;;;5.83;3.60;;;;;;;17.91;47.55;98145.63;8382525;28;20239;-76
2022/06/15 05:22:54;;;;;;;7.00;3.60;;;;;;;17.83;48.06;98145.34;8382791;28;20227;-76
2022/06/15 05:26:58;;;;;;;6.63;3.77;;;;;;;17.63;48.63;98144.09;8382590;28;20227;-76
2022/06/15 05:31:04;;;;;;;6.73;3.63;;;;;;;17.74;48.69;98149.44;8382249;28;20238;-76
2022/06/15 05:35:08;;;;;;;6.43;3.70;;;;;;;17.87;48.34;98145.03;8382306;28;20246;-76
2022/06/15 05:39:13;;;;;;;6.70;3.87;;;;;;;18.20;47.20;98147.94;8382020;28;20231;-76
2022/06/15 05:43:15;;;;;;;6.90;3.43;;;;;;;18.20;47.74;98147.94;8381917;28;20242;-76
2022/06/15 05:47:18;;;;;;;6.47;3.50;;;;;;;18.66;46.82;98141.97;8381871;28;20242;-76
2022/06/15 05:51:21;;;;;;;8.03;3.60;;;;;;;18.68;46.47;98138.25;8381840;28;20242;-76
2022/06/15 05:55:26;;;;;;;6.93;4.33;;;;;;;18.92;46.08;98140.88;8373383;28;20231;-76
2022/06/15 05:59:29;;;;;;;7.47;3.10;;;;;;;19.28;45.81;98141.59;8381333;28;20238;-75
2022/06/15 06:03:32;;;;;;;7.03;3.43;;;;;;;19.44;45.19;98143.88;8381483;28;20557;-76
2022/06/15 06:07:35;;;;;;;5.73;3.43;;;;;;;19.63;44.98;98145.91;8381382;28;20231;-76
2022/06/15 06:11:40;;;;;;;9.27;3.83;;;;;;;19.27;45.55;98145.19;8381387;28;20521;-75
2022/06/15 06:15:43;;;;;;;10.90;3.50;;;;;;;19.06;45.93;98146.84;8380657;28;20252;-76
2022/06/15 06:19:45;;;;;;;7.43;3.27;;;;;;;19.16;45.86;98139.09;8380972;28;20242;-76
2022/06/15 06:23:49;;;;;;;7.43;3.70;;;;;;;19.57;45.42;98138.50;8381007;28;20400;-76
2022/06/15 06:27:53;;;;;;;8.20;3.40;;;;;;;19.55;45.32;98137.78;8380820;28;20562;-76
2022/06/15 06:31:58;;;;;;;7.83;3.67;;;;;;;19.75;45.00;98131.00;8380666;28;20227;-76
2022/06/15 06:36:03;;;;;;;9.80;4.10;;;;;;;19.71;45.05;98142.69;8380739;28;20538;-76
2022/06/15 06:40:07;;;;;;;8.57;3.60;;;;;;;19.89;45.35;98151.75;8380441;28;20243;-76
2022/06/15 06:44:12;;;;;;;8.83;3.77;;;;;;;20.15;45.13;98146.22;8380440;28;20235;-76
2022/06/15 06:48:15;;;;;;;11.30;3.43;;;;;;;20.56;43.92;98144.63;8380560;28;20239;-76
2022/06/15 06:52:18;;;;;;;9.10;3.50;;;;;;;20.82;42.98;98136.38;8380580;28;20242;-76
2022/06/15 06:56:21;;;;;;;5.43;2.93;;;;;;;21.29;42.29;98137.63;8380256;28;20250;-76
2022/06/15 07:00:26;;;;;;;7.97;3.33;;;;;;;21.00;42.68;98140.09;8346864;28;20293;-75
2022/06/15 07:04:29;;;;;;;7.53;3.37;;;;;;;21.02;42.60;98126.81;8347257;28;20233;-76
2022/06/15 07:08:32;;;;;;;8.23;3.50;;;;;;;21.45;42.47;98131.88;8347318;28;20297;-76
2022/06/15 07:12:36;;;;;;;7.93;3.40;;;;;;;21.34;41.57;98128.47;8347213;28;20228;-75
2022/06/15 07:16:41;;;;;;;8.50;3.33;;;;;;;21.94;40.26;98123.31;8346855;28;20239;-76
2022/06/15 07:20:44;;;;;;;6.60;3.07;;;;;;;22.38;39.30;98121.97;8347176;28;20235;-76
2022/06/15 07:24:47;;;;;;;6.07;3.30;;;;;;;22.42;38.74;98127.81;8347016;28;20224;-76
2022/06/15 07:28:50;;;;;;;7.83;3.50;;;;;;;22.47;38.21;98136.16;8352166;28;20226;-75
2022/06/15 07:32:54;;;;;;;7.37;3.33;;;;;;;22.41;36.61;98127.00;8352956;28;20232;-76
2022/06/15 07:36:57;;;;;;;11.27;3.57;;;;;;;22.59;37.54;98127.13;8352917;28;20539;-76
2022/06/15 07:41:02;;;;;;;8.47;3.30;;;;;;;23.10;36.92;98119.00;8352836;28;20605;-76
2022/06/15 07:45:05;;;;;;;6.90;3.27;;;;;;;23.27;36.13;98120.06;8352540;28;20242;-76
2022/06/15 07:53:30;;;;;;;8.73;3.77;;;;;;;23.28;35.36;98114.63;8360274;28;20232;-75
2022/06/15 07:57:33;;;;;;;7.07;3.67;;;;;;;22.98;36.17;98113.00;8352260;28;20232;-75
2022/06/15 08:01:36;;;;;;;8.13;3.07;;;;;;;24.18;33.87;98115.69;8352162;28;20280;-75
2022/06/15 08:05:43;;;;;;;10.70;4.27;;;;;;;24.30;33.94;98107.53;8352105;28;20243;-77
2022/06/15 08:09:46;;;;;;;14.73;3.30;;;;;;;24.58;33.61;98111.78;8351938;28;20227;-77
2022/06/15 08:13:49;;;;;;;6.17;3.13;;;;;;;24.86;33.51;98110.81;8351918;28;20386;-76
2022/06/15 08:17:54;;;;;;;8.30;3.00;;;;;;;24.94;32.86;98109.06;8351607;28;20232;-77
2022/06/15 08:21:58;;;;;;;9.60;3.70;;;;;;;25.09;32.76;98101.38;8351536;28;20232;-76
2022/06/15 08:26:04;;;;;;;7.03;3.70;;;;;;;25.25;32.26;98102.47;8351529;28;20243;-77
2022/06/15 08:30:10;;;;;;;7.23;3.60;;;;;;;25.15;32.24;98099.88;8351362;28;20236;-76
2022/06/15 08:34:12;;;;;;;10.63;3.40;;;;;;;25.07;32.74;98095.38;8351230;28;20232;-77
2022/06/15 08:38:18;;;;;;;6.90;3.53;;;;;;;26.00;31.74;98097.28;8350698;28;20245;-77
2022/06/15 08:42:28;;;;;;;8.10;3.67;;;;;;;25.91;31.40;98096.47;8350802;28;20248;-77
2022/06/15 08:46:39;;;;;;;9.20;4.43;;;;;;;26.41;31.16;98083.25;8376637;28;20231;-75
2022/06/15 08:50:47;;;;;;;10.47;3.40;;;;;;;25.66;31.39;98078.78;8383631;28;20237;-76
2022/06/15 08:54:56;;;;;;;8.20;3.20;;;;;;;26.31;30.97;98078.94;8383573;28;20257;-76
2022/06/15 08:59:02;;;;;;;8.20;2.90;;;;;;;27.26;30.23;98075.69;8383462;28;20241;-76
2022/06/15 09:03:14;;;;;;;11.00;3.67;;;;;;;27.26;29.71;98077.50;8383392;28;20295;-76
2022/06/15 09:07:26;;;;;;;5.80;2.60;;;;;;;27.68;28.13;98085.16;8382982;28;20337;-76
2022/06/15 09:11:41;;;;;;;5.87;2.90;;;;;;;27.49;27.00;98083.75;8349683;28;20233;-76
2022/06/15 09:15:48;;;;;;;4.97;2.50;;;;;;;28.09;26.49;98084.09;8349900;28;20224;-76
2022/06/15 09:19:58;;;;;;;7.20;2.93;;;;;;;28.13;26.87;98089.91;8349697;28;20235;-76
2022/06/15 09:24:03;;;;;;;13.40;3.27;;;;;;;28.53;26.51;98086.13;8349706;28;20245;-76
2022/06/15 09:28:10;;;;;;;4.90;2.63;;;;;;;27.91;27.21;98087.03;8349575;28;20230;-76
2022/06/15 09:32:17;;;;;;;7.53;3.07;;;;;;;27.87;26.04;98091.00;8349500;28;20415;-76
2022/06/15 09:36:23;;;;;;;8.73;2.90;;;;;;;28.04;26.75;98091.78;8349188;28;20234;-76
2022/06/15 09:40:32;;;;;;;5.17;2.80;;;;;;;28.79;25.70;98079.56;8381836;28;20436;-76
2022/06/15 09:44:41;;;;;;;5.23;3.00;;;;;;;28.21;26.16;98080.00;8381969;28;20556;-76
2022/06/15 09:48:59;;;;;;;10.57;2.90;;;;;;;29.40;24.75;98077.56;8381222;28;20230;-76
2022/06/15 09:53:12;;;;;;;10.20;3.03;;;;;;;28.60;25.56;98064.94;8381806;28;20228;-76
2022/06/15 09:57:15;;;;;;;9.03;2.63;;;;;;;28.47;25.53;98060.19;8381518;28;20236;-77
2022/06/15 10:01:20;;;;;;;6.53;2.67;;;;;;;28.74;25.06;98049.97;8381522;28;20568;-77
2022/06/15 10:05:26;;;;;;;8.07;2.57;;;;;;;29.27;24.27;98058.75;8348152;28;20242;-76
2022/06/15 10:09:31;;;;;;;4.70;2.50;;;;;;;29.20;23.92;98055.16;8348240;28;20235;-76
2022/06/15 10:13:36;;;;;;;4.73;2.30;;;;;;;30.13;24.88;98050.06;8348333;28;20239;-76
2022/06/15 10:17:41;;;;;;;7.37;2.63;;;;;;;29.49;24.19;98050.78;8348068;28;20243;-76
2022/06/15 10:21:44;;;;;;;3.70;2.40;;;;;;;29.78;24.03;98048.09;8347899;28;20246;-76
2022/06/15 10:25:50;;;;;;;5.73;2.43;;;;;;;30.59;22.79;98041.66;8348018;28;20235;-76
2022/06/15 10:29:59;;;;;;;6.23;2.70;;;;;;;30.82;22.97;98032.56;8347795;28;20228;-76
2022/06/15 10:34:20;;;;;;;5.83;2.83;;;;;;;30.85;22.59;98030.31;8347732;28;20231;-77
2022/06/15 10:38:24;;;;;;;9.97;2.57;;;;;;;29.82;22.79;98032.53;8347380;28;20220;-76
2022/06/15 10:42:33;;;;;;;5.47;2.33;;;;;;;29.40;22.03;98026.09;8347417;28;20244;-76
2022/06/15 10:46:50;;;;;;;4.20;2.30;;;;;;;30.45;22.01;98024.69;8347431;28;20233;-76
2022/06/15 10:50:59;;;;;;;7.87;2.23;;;;;;;30.92;21.61;98014.34;8347531;28;20232;-77
2022/06/15 11:04:13;;;;;;;8.07;2.50;;;;;;;31.29;21.18;98005.06;8354200;28;20236;-77
2022/06/15 11:08:19;;;;;;;6.00;2.60;;;;;;;30.60;21.04;98001.38;8353835;28;20233;-77
2022/06/15 11:12:25;;;;;;;5.77;2.00;;;;;;;30.74;21.11;97996.94;8353497;28;20256;-76
2022/06/15 11:20:57;;;;;;;6.17;2.10;;;;;;;31.30;19.87;97992.50;8353562;28;20573;-76
2022/06/15 11:25:06;;;;;;;9.23;1.90;;;;;;;30.60;20.45;97995.22;8353586;28;20233;-77
2022/06/15 11:29:32;;;;;;;4.83;1.90;;;;;;;31.14;20.06;97989.16;8353328;28;20434;-77
2022/06/15 11:33:42;;;;;;;7.77;2.10;;;;;;;31.14;20.86;97988.34;8352929;28;20435;-76
2022/06/15 11:37:49;;;;;;;5.13;2.10;;;;;;;30.37;21.82;97980.25;8352963;28;20231;-76
2022/06/15 11:41:56;;;;;;;3.17;1.80;;;;;;;31.66;20.62;97970.84;8352770;28;20246;-76
2022/06/15 11:46:17;;;;;;;3.80;1.73;;;;;;;32.22;19.85;97972.34;8352684;28;20235;-76
2022/06/15 11:50:23;;;;;;;4.83;1.73;;;;;;;31.35;19.17;97957.97;8352589;28;20422;-77
2022/06/15 11:54:44;;;;;;;2.90;1.80;;;;;;;31.48;19.75;97959.88;8352257;28;20238;-77
2022/06/15 11:59:01;;;;;;;4.90;1.93;;;;;;;30.71;19.41;97967.09;8352488;28;20404;-76
2022/06/15 12:03:50;;;;;;;4.50;1.97;;;;;;;30.91;20.37;97956.56;8359963;28;20232;-76
2022/06/15 12:08:03;;;;;;;3.70;2.10;;;;;;;32.02;19.23;97971.53;8352013;28;20231;-76
2022/06/15 12:16:35;;;;;;;3.67;1.63;;;;;;;31.66;19.00;97957.47;8359676;28;20226;-76
2022/06/15 12:20:49;;;;;;;7.73;2.20;;;;;;;31.31;19.09;97956.72;8351647;28;20563;-76
2022/06/15 12:24:55;;;;;;;7.13;2.20;;;;;;;32.10;18.69;97957.91;8351532;28;20355;-76
2022/06/15 12:29:04;;;;;;;3.83;1.40;;;;;;;31.85;16.88;97952.31;8351388;28;20229;-76
2022/06/15 12:33:24;;;;;;;4.27;1.43;;;;;;;31.30;16.59;97955.91;8351376;28;20243;-77
2022/06/15 12:37:30;;;;;;;2.73;1.23;;;;;;;32.14;16.38;97962.66;8376191;28;20238;-76
2022/06/15 12:46:04;;;;;;;2.90;1.33;;;;;;;31.73;17.10;97944.88;8384057;28;20230;-77
2022/06/15 12:50:36;;;;;;;3.93;1.43;;;;;;;31.64;17.98;97939.94;8384007;28;20443;-76
2022/06/15 12:54:48;;;;;;;5.63;1.70;;;;;;;32.26;18.41;97943.28;8358700;28;20257;-76
2022/06/15 12:58:59;;;;;;;4.50;1.40;;;;;;;32.61;17.83;97935.81;8350607;28;20239;-76
2022/06/15 13:03:12;;;;;;;2.37;1.50;;;;;;;32.68;18.23;97931.28;8350391;28;20233;-76
2022/06/15 13:07:23;;;;;;;2.40;1.30;;;;;;;32.57;17.17;97937.28;8350319;28;20229;-77
2022/06/15 13:11:27;;;;;;;2.20;1.03;;;;;;;32.70;15.97;97926.53;8349742;28;20231;-76
2022/06/15 13:15:54;;;;;;;1.10;1.00;;;;;;;32.88;16.40;97928.53;8350062;28;20533;-76
2022/06/15 13:20:03;;;;;;;4.63;1.20;;;;;;;32.78;15.77;97925.47;8349957;28;20245;-76
2022/06/15 13:24:09;;;;;;;4.23;1.40;;;;;;;32.77;16.34;97926.50;8348585;28;20419;-77
2022/06/15 13:28:23;;;;;;;3.37;1.57;;;;;;;32.56;16.42;97930.25;8349524;28;20584;-77
2022/06/15 13:32:49;;;;;;;2.00;1.30;;;;;;;32.67;17.51;97926.97;8349017;28;20236;-76
2022/06/15 13:37:11;;;;;;;6.43;1.73;;;;;;;32.20;16.86;97923.50;8349399;28;20580;-77
2022/06/15 13:41:23;;;;;;;2.40;1.50;;;;;;;32.40;17.43;97923.47;8349046;28;20245;-76
2022/06/15 13:45:41;;;;;;;4.17;1.50;;;;;;;32.58;16.90;97912.13;8355988;28;20245;-76
2022/06/15 13:49:44;;;;;;;4.20;1.60;;;;;;;32.26;18.10;97914.63;8348829;28;20223;-77
2022/06/15 13:53:55;;;;;;;2.07;1.40;;;;;;;32.33;18.08;97917.31;8348791;28;20571;-76
2022/06/15 13:58:36;;;;;;;3.03;1.60;;;;;;;32.59;18.52;97912.97;8348730;28;20432;-77
2022/06/15 14:02:48;;;;;;;3.20;1.50;;;;;;;32.67;17.40;97913.56;8381306;28;20238;-76
2022/06/15 14:07:24;;;;;;;4.53;1.77;;;;;;;32.54;17.81;97909.03;8381445;28;20228;-77
2022/06/15 14:11:43;;;;;;;1.70;1.23;;;;;;;32.71;18.81;97904.06;8381003;28;20227;-76
2022/06/15 14:15:56;;;;;;;5.33;1.73;;;;;;;32.23;17.98;97903.50;8381185;28;20379;-77
2022/06/15 14:20:04;;;;;;;3.60;1.53;;;;;;;31.90;17.85;97899.00;8381092;28;20434;-77
2022/06/15 14:24:17;;;;;;;2.97;1.60;;;;;;;32.22;16.91;97901.88;8380945;28;20227;-77
2022/06/15 14:28:28;;;;;;;2.83;1.30;;;;;;;32.14;16.79;97893.03;8380863;28;20243;-77
2022/06/15 14:32:34;;;;;;;2.93;1.80;;;;;;;32.36;17.32;97897.31;8380448;28;20221;-76
2022/06/15 14:36:38;;;;;;;4.00;1.30;;;;;;;32.44;17.30;97883.69;8380435;28;20235;-76
2022/06/15 14:40:43;;;;;;;4.90;1.50;;;;;;;32.12;17.07;97886.22;8380657;28;20236;-76
2022/06/15 14:44:47;;;;;;;3.90;1.50;;;;;;;32.34;18.48;97886.81;8380404;28;20229;-76
2022/06/15 14:48:52;;;;;;;2.00;1.40;;;;;;;32.32;18.76;97875.47;8380493;28;20244;-76
2022/06/15 14:53:06;;;;;;;5.87;1.70;;;;;;;32.25;18.49;97886.22;8380486;28;20415;-77
2022/06/15 14:57:09;;;;;;;2.73;1.70;;;;;;;32.34;18.91;97878.75;8380376;28;20233;-77
2022/06/15 15:01:13;;;;;;;3.20;1.70;;;;;;;32.00;18.14;97882.50;8380270;28;20552;-77
2022/06/15 15:05:18;;;;;;;2.50;1.47;;;;;;;31.34;18.15;97887.59;8379487;28;20229;-77
2022/06/15 15:09:24;;;;;;;3.97;1.30;;;;;;;31.69;18.26;97873.25;8380157;28;20241;-77
2022/06/15 15:13:30;;;;;;;5.80;1.87;;;;;;;31.64;18.18;97863.13;8379749;28;20474;-77
2022/06/15 15:17:49;;;;;;;10.27;1.80;;;;;;;30.98;18.44;97861.19;8380087;28;20230;-76
2022/06/15 15:22:01;;;;;;;1.97;1.53;;;;;;;31.04;19.09;97856.88;8379927;28;20240;-76
2022/06/15 15:26:05;;;;;;;3.67;1.70;;;;;;;31.27;18.98;97859.19;8379806;28;20268;-77
2022/06/15 15:35:11;;;;;;;2.43;1.20;;;;;;;31.53;18.79;97853.06;8379370;28;20420;-76
2022/06/15 15:39:16;;;;;;;2.33;1.43;;;;;;;31.60;19.92;97845.84;8379691;28;20427;-77
2022/06/15 15:43:20;;;;;;;4.00;1.57;;;;;;;31.52;20.19;97846.06;8379376;28;20303;-77
2022/06/15 15:47:23;;;;;;;5.07;1.30;;;;;;;31.29;18.50;97847.25;8380590;28;20231;-76
2022/06/15 15:51:26;;;;;;;4.67;1.60;;;;;;;31.03;18.49;97847.19;8385754;28;20548;-76
2022/06/15 15:55:31;;;;;;;4.17;1.50;;;;;;;31.03;18.38;97837.31;8385565;28;20266;-76
2022/06/15 15:59:36;;;;;;;3.70;1.60;;;;;;;30.97;18.79;97836.25;8385413;28;20242;-76
2022/06/15 16:03:38;;;;;;;2.00;1.40;;;;;;;31.03;19.36;97841.84;8385296;28;20247;-77
2022/06/15 16:07:42;;;;;;;2.87;1.70;;;;;;;30.96;18.97;97834.63;8385194;28;27186;-76
2022/06/15 16:11:46;;;;;;;2.97;1.40;;;;;;;30.94;18.79;97835.88;8385176;28;20561;-76
2022/06/15 16:15:54;;;;;;;2.83;1.50;;;;;;;30.57;19.21;97830.75;8384859;28;20272;-77
2022/06/15 16:19:58;;;;;;;3.90;1.60;;;;;;;30.66;19.02;97830.59;8384942;28;20238;-77
2022/06/15 16:24:05;;;;;;;3.87;1.40;;;;;;;30.57;19.09;97821.91;8384627;28;20240;-77
2022/06/15 16:28:11;;;;;;;2.53;1.50;;;;;;;30.66;19.27;97831.41;8384211;28;20236;-76
2022/06/15 16:32:16;;;;;;;1.90;1.40;;;;;;;30.62;18.67;97827.50;8384439;28;20243;-77
2022/06/15 16:36:19;;;;;;;2.20;1.20;;;;;;;30.54;18.60;97822.31;8384308;28;20231;-77
2022/06/15 16:40:22;;;;;;;3.10;1.40;;;;;;;30.43;18.50;97822.91;8384125;28;20240;-77
2022/06/15 16:44:25;;;;;;;7.17;2.27;;;;;;;30.35;18.99;97819.38;8383433;28;20235;-76
2022/06/15 16:48:30;;;;;;;3.67;1.60;;;;;;;30.32;18.74;97824.28;8384017;28;20241;-76
2022/06/15 16:52:33;;;;;;;1.90;1.40;;;;;;;30.21;19.51;97815.78;8383899;28;20235;-76
2022/06/15 16:56:37;;;;;;;2.80;1.47;;;;;;;30.11;19.02;97817.16;8383468;28;20239;-76
2022/06/15 17:00:40;;;;;;;4.03;1.43;;;;;;;30.04;19.55;97813.59;8383249;28;20234;-76
2022/06/15 17:04:45;;;;;;;2.33;1.33;;;;;;;29.91;19.91;97817.84;8383343;28;20251;-76
2022/06/15 17:08:48;;;;;;;2.97;1.47;;;;;;;29.86;19.86;97811.44;8383325;28;20552;-76
2022/06/15 17:12:51;;;;;;;2.73;1.40;;;;;;;29.77;19.67;97808.91;8383192;28;20250;-77
2022/06/15 17:16:53;;;;;;;3.37;1.47;;;;;;;29.53;20.14;97806.63;8382973;28;20231;-77
2022/06/15 17:20:59;;;;;;;2.00;1.40;;;;;;;29.41;19.89;97806.34;8382917;28;20424;-76
2022/06/15 17:25:03;;;;;;;2.57;1.60;;;;;;;29.42;20.24;97810.69;8382955;28;20234;-76
2022/06/15 17:29:06;;;;;;;2.07;1.30;;;;;;;29.35;20.39;97810.59;8382518;28;20233;-77
2022/06/15 17:33:09;;;;;;;3.70;1.50;;;;;;;29.25;21.77;97810.13;8382320;28;20234;-77
2022/06/15 17:37:13;;;;;;;4.33;1.47;;;;;;;29.22;21.60;97805.16;8382093;28;20243;-77
2022/06/15 17:41:18;;;;;;;2.33;1.30;;;;;;;29.16;21.22;97803.25;8382145;28;20226;-77
2022/06/15 17:45:21;;;;;;;2.93;1.90;;;;;;;29.09;21.83;97813.00;8381668;28;20234;-77
2022/06/15 17:49:24;;;;;;;2.33;1.53;;;;;;;29.04;21.05;97810.91;8381446;28;20225;-76
2022/06/15 17:53:28;;;;;;;2.87;1.70;;;;;;;28.99;20.94;97805.31;8381681;28;20239;-76
2022/06/15 17:57:31;;;;;;;3.33;1.40;;;;;;;28.90;21.44;97809.94;8381611;28;20238;-76
2022/06/15 18:01:35;;;;;;;3.97;1.47;;;;;;;28.86;23.11;97803.31;8381473;28;20235;-76
2022/06/15 18:05:38;;;;;;;4.43;1.70;;;;;;;28.77;23.22;97802.63;8381327;28;20235;-76
2022/06/15 18:09:42;;;;;;;1.63;1.23;;;;;;;28.72;22.86;97798.88;8380655;28;20241;-76
2022/06/15 18:13:48;;;;;;;4.07;2.00;;;;;;;28.64;23.92;97805.13;8381194;28;20227;-76
2022/06/15 18:17:52;;;;;;;5.37;2.00;;;;;;;28.53;25.04;97790.47;8381061;28;20237;-77
2022/06/15 18:21:56;;;;;;;5.53;1.90;;;;;;;28.47;24.99;97805.31;8381038;28;20233;-77
2022/06/15 18:26:11;;;;;;;2.10;1.50;;;;;;;28.39;25.40;97804.59;8380897;28;20257;-76
2022/06/15 18:30:17;;;;;;;3.43;1.67;;;;;;;28.33;25.38;97808.00;8380740;28;20305;-76
2022/06/15 18:34:20;;;;;;;2.33;1.70;;;;;;;28.20;26.16;97809.47;8380638;28;20253;-76
2022/06/15 18:38:24;;;;;;;1.83;1.67;;;;;;;28.09;26.60;97812.59;8346958;28;20240;-76
2022/06/15 18:42:28;;;;;;;2.80;2.00;;;;;;;28.04;27.48;97815.78;8347227;28;20256;-76
2022/06/15 18:50:51;;;;;;;7.40;4.83;;;;;;;27.79;28.61;97814.38;8347381;28;20416;-76
2022/06/15 18:54:54;;;;;;;7.40;2.80;;;;;;;27.65;29.27;97816.00;8347325;28;20249;-76
2022/06/15 18:58:59;;;;;;;3.77;2.10;;;;;;;27.56;29.76;97814.44;8347182;28;20239;-76
2022/06/15 19:03:02;;;;;;;2.07;1.83;;;;;;;27.42;31.65;97821.38;8347047;28;20247;-76
2022/06/15 19:07:10;;;;;;;4.23;2.50;;;;;;;27.28;32.09;97817.63;8346989;28;20336;-76
2022/06/15 19:11:14;;;;;;;6.57;2.20;;;;;;;27.16;32.61;97834.97;8347172;28;20236;-77
2022/06/15 19:15:19;;;;;;;5.97;2.30;;;;;;;27.04;33.17;97835.38;8346829;28;20238;-76
2022/06/15 19:19:21;;;;;;;5.17;2.50;;;;;;;26.87;35.27;97849.78;8346883;28;20240;-76
2022/06/15 19:23:24;;;;;;;6.77;2.20;;;;;;;26.78;34.52;97843.66;8351206;28;20250;-76
2022/06/15 19:27:29;;;;;;;5.77;2.30;;;;;;;26.69;34.25;97847.34;8353187;28;20228;-76
2022/06/15 19:31:33;;;;;;;5.30;2.40;;;;;;;26.59;32.83;97852.88;8352950;28;20234;-76
2022/06/15 19:35:36;;;;;;;4.13;2.00;;;;;;;26.50;32.58;97856.53;8352987;28;20234;-77
2022/06/15 19:39:39;;;;;;;5.43;2.40;;;;;;;26.37;33.55;97861.56;8352851;28;20321;-76
2022/06/15 19:43:44;;;;;;;3.70;2.47;;;;;;;26.32;34.13;97864.75;8352447;28;20274;-76
2022/06/15 19:47:49;;;;;;;4.57;2.43;;;;;;;26.21;36.37;97867.75;8352649;28;20224;-76
2022/06/15 19:51:52;;;;;;;5.20;2.67;;;;;;;26.04;35.94;97870.44;8352536;28;20244;-76
2022/06/15 19:55:55;;;;;;;4.80;3.37;;;;;;;25.90;35.57;97877.22;8352384;28;20252;-76
2022/06/15 20:00:06;;;;;;;9.40;3.30;;;;;;;25.82;35.53;97889.69;8352226;28;20398;-77